Time;durP1;ratioP1;P1;durP2;ratioP2;P2;SDS_P1;SDS_P2;PMS_P1;PMS_P2;Temp;Humidity;BMP_temperature;BMP_pressure;BME280_temperature;BME280_humidity;BME280_pressure;Samples;Min_cycle;Max_cycle;Signal;HPM_P1;HPM_P2
2022/01/04 00:00:20;;;;;;;0.20;0.20;;;18.00;69.80;;;;;;5014549;28;20038;-22
2022/01/04 00:02:46;;;;;;;0.20;0.20;;;18.00;69.70;;;;;;5015105;28;20045;-22
2022/01/04 00:05:11;;;;;;;0.10;0.10;;;18.00;69.70;;;;;;5014370;28;20548;-20
2022/01/04 00:07:37;;;;;;;0.65;0.65;;;18.00;69.50;;;;;;5014937;28;20099;-22
2022/01/04 00:10:04;;;;;;;0.20;0.20;;;18.10;69.50;;;;;;5015280;28;20136;-20
2022/01/04 00:15:13;;;;;;;0.35;0.10;;;18.00;69.70;;;;;;5013957;28;20049;-23
2022/01/04 00:17:39;;;;;;;0.20;0.20;;;18.00;69.70;;;;;;5014909;28;20414;-22
2022/01/04 00:20:05;;;;;;;0.10;0.10;;;18.00;69.60;;;;;;5015292;28;20046;-22
2022/01/04 00:22:31;;;;;;;0.20;0.20;;;18.00;69.50;;;;;;5015365;28;20104;-22
2022/01/04 00:24:57;;;;;;;0.30;0.30;;;18.00;69.60;;;;;;5015116;28;20053;-22
2022/01/04 00:27:22;;;;;;;0.15;0.15;;;18.00;69.70;;;;;;5015238;28;20069;-23
2022/01/04 00:29:48;;;;;;;0.30;0.30;;;18.00;69.70;;;;;;5014818;28;20038;-22
2022/01/04 00:32:14;;;;;;;0.20;0.10;;;18.00;69.70;;;;;;5008789;28;20038;-21
2022/01/04 00:34:41;;;;;;;1.38;0.30;;;18.00;69.60;;;;;;4995332;28;20121;-22
2022/01/04 00:37:06;;;;;;;0.10;0.10;;;17.90;69.60;;;;;;4995879;28;20044;-21
2022/01/04 00:39:32;;;;;;;0.10;0.10;;;18.00;69.70;;;;;;4994813;28;20053;-21
2022/01/04 00:41:57;;;;;;;0.20;0.20;;;18.00;69.70;;;;;;4995363;28;20044;-22
2022/01/04 00:44:23;;;;;;;0.10;0.10;;;17.90;69.70;;;;;;4995849;28;20053;-21
2022/01/04 00:46:49;;;;;;;0.30;0.30;;;18.00;69.80;;;;;;4994676;28;20044;-22
2022/01/04 00:49:17;;;;;;;0.10;0.10;;;17.90;69.60;;;;;;4995561;28;20193;-21
2022/01/04 00:51:47;;;;;;;0.10;0.10;;;17.90;69.60;;;;;;4994612;28;20049;-21
2022/01/04 00:54:13;;;;;;;0.10;0.10;;;18.00;69.60;;;;;;4995577;28;20057;-22
2022/01/04 00:56:39;;;;;;;0.15;0.10;;;18.00;69.50;;;;;;4994651;28;20062;-20
2022/01/04 00:59:05;;;;;;;0.20;0.20;;;17.90;69.50;;;;;;4995540;28;20554;-22
2022/01/04 01:01:31;;;;;;;0.28;0.28;;;18.00;69.50;;;;;;4995058;28;20042;-22
2022/01/04 01:03:56;;;;;;;0.20;0.20;;;18.00;69.60;;;;;;4987835;28;20051;-21
2022/01/04 01:06:22;;;;;;;0.15;0.15;;;17.90;69.60;;;;;;4975640;28;20106;-21
2022/01/04 01:08:48;;;;;;;0.10;0.10;;;17.90;69.60;;;;;;4975045;28;20063;-21
2022/01/04 01:11:14;;;;;;;0.80;0.35;;;17.90;69.60;;;;;;4975544;28;20042;-22
2022/01/04 01:13:39;;;;;;;0.10;0.10;;;17.90;69.60;;;;;;4975173;28;20078;-22
2022/01/04 01:16:05;;;;;;;0.00;0.00;;;17.90;69.50;;;;;;4975611;28;20047;-23
2022/01/04 01:18:31;;;;;;;0.20;0.20;;;17.90;69.50;;;;;;4975767;28;20047;-22
2022/01/04 01:20:56;;;;;;;0.10;0.10;;;17.90;69.60;;;;;;4974486;28;20038;-22
2022/01/04 01:23:22;;;;;;;0.10;0.10;;;17.90;69.60;;;;;;4975732;28;20444;-22
2022/01/04 01:25:48;;;;;;;0.10;0.10;;;17.90;69.50;;;;;;4975137;28;20041;-21
2022/01/04 01:28:14;;;;;;;0.10;0.10;;;17.90;69.60;;;;;;4975418;28;20384;-21
2022/01/04 01:30:41;;;;;;;0.10;0.10;;;17.90;69.50;;;;;;4974180;28;20065;-22
2022/01/04 01:33:07;;;;;;;0.20;0.20;;;17.90;69.60;;;;;;4975801;28;20133;-22
2022/01/04 01:35:34;;;;;;;0.00;0.00;;;17.90;69.60;;;;;;4975732;28;20507;-21
2022/01/04 01:38:00;;;;;;;0.20;0.20;;;17.90;69.40;;;;;;4974793;28;20058;-22
2022/01/04 01:40:25;;;;;;;0.00;0.00;;;17.90;69.40;;;;;;4975129;28;20043;-23
2022/01/04 01:42:51;;;;;;;0.13;0.13;;;17.90;69.50;;;;;;4974971;28;20114;-22
2022/01/04 01:45:17;;;;;;;0.10;0.10;;;17.90;69.40;;;;;;4975344;28;20035;-21
2022/01/04 01:47:44;;;;;;;0.10;0.10;;;17.90;69.60;;;;;;4984000;28;20046;-22
2022/01/04 01:50:11;;;;;;;0.13;0.13;;;17.90;69.70;;;;;;4994786;28;20038;-22
2022/01/04 01:52:37;;;;;;;0.10;0.10;;;17.90;69.60;;;;;;4996329;28;20042;-22
2022/01/04 01:55:03;;;;;;;0.00;0.00;;;17.90;69.50;;;;;;4998943;28;20491;-22
2022/01/04 01:57:28;;;;;;;0.03;0.03;;;17.90;69.50;;;;;;4998622;28;20129;-22
2022/01/04 01:59:54;;;;;;;0.10;0.10;;;17.90;69.60;;;;;;4997777;28;20117;-20
2022/01/04 02:02:20;;;;;;;0.03;0.03;;;17.80;69.50;;;;;;5011130;28;20046;-20
2022/01/04 02:04:45;;;;;;;0.10;0.10;;;17.80;69.50;;;;;;5004182;28;20089;-21
2022/01/04 02:07:11;;;;;;;0.10;0.10;;;17.80;69.50;;;;;;4997250;28;20102;-22
2022/01/04 02:09:40;;;;;;;0.00;0.00;;;17.90;69.60;;;;;;4996855;28;20134;-22
2022/01/04 02:12:06;;;;;;;0.05;0.05;;;17.80;69.60;;;;;;4984532;28;20042;-22
2022/01/04 02:14:32;;;;;;;0.05;0.05;;;17.80;69.60;;;;;;4978827;28;20050;-22
2022/01/04 02:16:57;;;;;;;0.00;0.00;;;17.90;69.50;;;;;;4978348;28;20424;-22
2022/01/04 02:19:23;;;;;;;0.10;0.10;;;17.90;69.50;;;;;;4978681;28;20054;-20
2022/01/04 02:21:48;;;;;;;0.10;0.10;;;17.90;69.50;;;;;;4978008;28;20034;-21
2022/01/04 02:24:14;;;;;;;0.10;0.10;;;17.90;69.40;;;;;;4979067;28;20122;-21
2022/01/04 02:26:40;;;;;;;0.00;0.00;;;17.90;69.50;;;;;;4978133;28;20043;-23
2022/01/04 02:29:07;;;;;;;0.10;0.10;;;17.90;69.30;;;;;;4978452;28;20049;-22
2022/01/04 02:31:33;;;;;;;0.10;0.10;;;17.80;69.40;;;;;;4978143;28;20047;-22
2022/01/04 02:33:59;;;;;;;0.00;0.00;;;17.90;69.40;;;;;;4978216;28;22660;-22
2022/01/04 02:36:25;;;;;;;0.10;0.00;;;17.80;69.40;;;;;;4978732;28;20051;-21
2022/01/04 02:38:53;;;;;;;0.03;0.03;;;17.80;69.60;;;;;;4977873;28;20053;-21
2022/01/04 02:41:19;;;;;;;0.08;0.08;;;17.80;69.50;;;;;;4977904;28;20129;-22
2022/01/04 02:43:44;;;;;;;0.00;0.00;;;17.80;69.40;;;;;;4993586;28;20082;-21
2022/01/04 02:46:10;;;;;;;0.10;0.10;;;17.90;69.30;;;;;;4997871;28;20444;-22
2022/01/04 02:48:42;;;;;;;0.03;0.03;;;17.80;69.40;;;;;;4997518;28;20117;-22
2022/01/04 02:51:08;;;;;;;0.00;0.00;;;17.80;69.40;;;;;;5016531;28;20519;-21
2022/01/04 02:53:34;;;;;;;0.00;0.00;;;17.80;69.50;;;;;;5024950;28;20069;-21
2022/01/04 02:56:00;;;;;;;0.10;0.10;;;17.80;69.40;;;;;;5036659;28;20052;-20
2022/01/04 02:58:25;;;;;;;0.00;0.00;;;17.80;69.30;;;;;;5037059;28;20120;-21
2022/01/04 03:00:51;;;;;;;0.03;0.00;;;17.80;69.40;;;;;;5035450;28;20052;-21
2022/01/04 03:03:16;;;;;;;0.10;0.10;;;17.90;69.20;;;;;;5035461;28;20045;-21
2022/01/04 03:05:42;;;;;;;0.13;0.13;;;17.80;69.30;;;;;;4998957;28;20478;-22
2022/01/04 03:08:07;;;;;;;0.00;0.00;;;17.80;69.30;;;;;;5016831;28;20034;-26
2022/01/04 03:10:34;;;;;;;0.00;0.00;;;17.80;69.20;;;;;;5016404;28;20038;-22
2022/01/04 03:13:02;;;;;;;0.00;0.00;;;17.90;69.20;;;;;;5016204;28;20515;-22
2022/01/04 03:15:28;;;;;;;0.00;0.00;;;17.80;69.30;;;;;;5017089;28;20045;-22
2022/01/04 03:17:54;;;;;;;0.00;0.00;;;17.80;69.40;;;;;;5016563;28;20581;-22
2022/01/04 03:20:19;;;;;;;0.00;0.00;;;17.80;69.50;;;;;;5015961;28;20049;-22
2022/01/04 03:22:45;;;;;;;0.00;0.00;;;17.80;69.30;;;;;;5016224;28;20048;-22
2022/01/04 03:25:11;;;;;;;0.00;0.00;;;17.80;69.40;;;;;;5016863;28;20121;-21
2022/01/04 03:27:36;;;;;;;0.00;0.00;;;17.80;69.40;;;;;;5016611;28;20092;-22
2022/01/04 03:30:03;;;;;;;0.00;0.00;;;17.80;69.40;;;;;;5015431;28;20046;-22
2022/01/04 03:32:28;;;;;;;0.00;0.00;;;17.80;69.30;;;;;;5016614;28;20049;-22
2022/01/04 03:34:54;;;;;;;0.00;0.00;;;17.80;69.30;;;;;;5015904;28;20156;-22
2022/01/04 03:37:19;;;;;;;0.00;0.00;;;17.80;69.40;;;;;;5016649;28;20413;-22
2022/01/04 03:39:45;;;;;;;0.00;0.00;;;17.70;69.30;;;;;;5015470;28;20107;-20
2022/01/04 03:42:10;;;;;;;0.10;0.10;;;17.80;69.40;;;;;;5016373;28;20042;-22
2022/01/04 03:44:36;;;;;;;0.15;0.15;;;17.80;69.40;;;;;;5015804;28;20050;-22
2022/01/04 03:47:02;;;;;;;0.00;0.00;;;17.80;69.50;;;;;;5015557;28;20053;-20
2022/01/04 03:49:28;;;;;;;0.00;0.00;;;17.80;69.40;;;;;;5016013;28;20099;-21
2022/01/04 03:51:53;;;;;;;0.10;0.10;;;17.70;69.20;;;;;;5015473;28;20132;-22
2022/01/04 03:54:19;;;;;;;0.10;0.00;;;17.80;69.30;;;;;;5029007;28;20049;-21
2022/01/04 03:56:45;;;;;;;0.00;0.00;;;17.70;69.20;;;;;;5015335;28;20042;-22
2022/01/04 03:59:10;;;;;;;0.00;0.00;;;17.70;69.30;;;;;;5015628;28;20108;-22
2022/01/04 04:01:36;;;;;;;0.00;0.00;;;17.80;69.30;;;;;;5015763;28;20049;-23
2022/01/04 04:04:02;;;;;;;0.10;0.10;;;17.80;69.20;;;;;;5015544;28;20498;-23
2022/01/04 04:06:27;;;;;;;0.10;0.10;;;17.80;69.20;;;;;;5016170;28;20045;-22
2022/01/04 04:08:56;;;;;;;0.00;0.00;;;17.80;69.20;;;;;;5015245;28;20129;-22
2022/01/04 04:11:23;;;;;;;0.10;0.10;;;17.80;69.10;;;;;;5015377;28;20069;-22
2022/01/04 04:13:49;;;;;;;0.03;0.03;;;17.80;69.30;;;;;;5015258;28;20502;-22
2022/01/04 04:16:14;;;;;;;0.00;0.00;;;17.80;69.30;;;;;;5015602;28;20057;-22
2022/01/04 04:18:40;;;;;;;0.10;0.00;;;17.70;69.20;;;;;;5016074;28;20037;-22
2022/01/04 04:21:05;;;;;;;0.03;0.03;;;17.70;69.20;;;;;;4994728;28;20058;-22
2022/01/04 04:23:31;;;;;;;0.00;0.00;;;17.80;69.10;;;;;;4996372;28;20049;-22
2022/01/04 04:25:56;;;;;;;0.00;0.00;;;17.80;69.30;;;;;;4995166;28;20062;-22
2022/01/04 04:28:22;;;;;;;0.00;0.00;;;17.70;69.40;;;;;;4995931;28;20089;-22
2022/01/04 04:30:48;;;;;;;0.00;0.00;;;17.70;69.30;;;;;;4994174;28;20602;-22
2022/01/04 04:33:13;;;;;;;0.00;0.00;;;17.70;69.40;;;;;;4995883;28;20155;-22
2022/01/04 04:35:39;;;;;;;0.05;0.05;;;17.70;69.40;;;;;;4996031;28;20051;-21
2022/01/04 04:38:06;;;;;;;0.10;0.10;;;17.70;69.40;;;;;;4995285;28;20046;-21
2022/01/04 04:40:33;;;;;;;0.03;0.00;;;17.70;69.20;;;;;;4995267;28;20062;-21
2022/01/04 04:42:58;;;;;;;0.00;0.00;;;17.70;69.20;;;;;;4995155;28;20066;-22
2022/01/04 04:45:24;;;;;;;0.00;0.00;;;17.70;69.30;;;;;;4995315;28;20474;-23
2022/01/04 04:47:50;;;;;;;0.00;0.00;;;17.70;69.30;;;;;;4994800;28;20038;-21
2022/01/04 04:50:15;;;;;;;0.10;0.10;;;17.70;69.20;;;;;;4994954;28;20875;-22
2022/01/04 04:52:41;;;;;;;0.00;0.00;;;17.70;69.20;;;;;;4995541;28;20045;-22
2022/01/04 04:55:07;;;;;;;0.00;0.00;;;17.70;69.20;;;;;;4995056;28;20050;-22
2022/01/04 04:57:33;;;;;;;0.00;0.00;;;17.70;69.20;;;;;;4995639;28;20039;-22
2022/01/04 04:59:58;;;;;;;0.10;0.10;;;17.70;69.20;;;;;;4994298;28;20077;-22
2022/01/04 05:02:24;;;;;;;0.10;0.10;;;17.70;69.20;;;;;;4995317;28;20073;-22
2022/01/04 05:04:50;;;;;;;0.20;0.20;;;17.70;69.30;;;;;;4980690;28;20096;-22
2022/01/04 05:07:15;;;;;;;0.00;0.00;;;17.70;69.20;;;;;;4976042;28;20097;-22
2022/01/04 05:09:41;;;;;;;0.00;0.00;;;17.60;69.20;;;;;;4975544;28;20054;-22
2022/01/04 05:12:07;;;;;;;0.10;0.10;;;17.70;69.10;;;;;;4974485;28;20129;-22
2022/01/04 05:14:33;;;;;;;0.05;0.05;;;17.70;69.20;;;;;;4975715;28;20043;-22
2022/01/04 05:16:58;;;;;;;0.00;0.00;;;17.70;69.20;;;;;;4975317;28;20427;-20
2022/01/04 05:19:24;;;;;;;0.00;0.00;;;17.70;69.20;;;;;;4992484;28;20135;-22
2022/01/04 05:21:49;;;;;;;0.00;0.00;;;17.60;69.30;;;;;;4993648;28;20565;-22
2022/01/04 05:24:15;;;;;;;0.10;0.10;;;17.60;69.30;;;;;;4994631;28;20077;-22
2022/01/04 05:26:41;;;;;;;0.10;0.10;;;17.60;69.20;;;;;;4993441;28;20070;-22
2022/01/04 05:29:06;;;;;;;0.10;0.10;;;17.60;69.20;;;;;;4993400;28;20046;-20
2022/01/04 05:31:32;;;;;;;0.20;0.20;;;17.60;69.30;;;;;;4993921;28;20068;-21
2022/01/04 05:33:58;;;;;;;0.10;0.10;;;17.60;69.20;;;;;;4994013;28;20046;-21
2022/01/04 05:36:23;;;;;;;0.10;0.10;;;17.70;69.20;;;;;;4994875;28;20081;-21
2022/01/04 05:38:49;;;;;;;0.03;0.03;;;17.60;70.00;;;;;;4994210;28;20073;-22
2022/01/04 05:41:15;;;;;;;0.10;0.10;;;17.60;69.20;;;;;;4992744;28;20414;-22
2022/01/04 05:43:40;;;;;;;0.10;0.10;;;17.60;69.20;;;;;;4993999;28;20061;-21
2022/01/04 05:46:06;;;;;;;0.05;0.05;;;17.60;69.10;;;;;;4992932;28;20070;-22
2022/01/04 05:48:32;;;;;;;0.20;0.20;;;17.70;69.10;;;;;;4994491;28;20507;-22
2022/01/04 05:50:57;;;;;;;0.10;0.10;;;17.60;69.20;;;;;;4992748;28;20050;-22
2022/01/04 05:53:23;;;;;;;0.10;0.10;;;17.70;69.20;;;;;;4994284;28;20043;-21
2022/01/04 05:55:48;;;;;;;0.03;0.03;;;17.60;69.20;;;;;;4994312;28;20066;-21
2022/01/04 05:58:14;;;;;;;0.20;0.20;;;17.60;69.30;;;;;;4992938;28;20088;-21
2022/01/04 06:00:40;;;;;;;0.00;0.00;;;17.60;69.20;;;;;;4992315;28;20070;-22
2022/01/04 06:03:05;;;;;;;0.10;0.10;;;17.60;69.30;;;;;;4993155;28;20066;-22
2022/01/04 06:05:31;;;;;;;0.05;0.05;;;17.60;69.20;;;;;;4993556;28;20054;-22
2022/01/04 06:07:56;;;;;;;0.10;0.10;;;17.60;69.20;;;;;;4992779;28;20096;-22
2022/01/04 06:10:22;;;;;;;0.20;0.20;;;17.60;69.20;;;;;;4993091;28;20133;-22
2022/01/04 06:15:16;;;;;;;0.00;0.00;;;17.60;69.20;;;;;;4990213;28;20053;-23
2022/01/04 06:17:48;;;;;;;0.00;0.00;;;17.60;69.20;;;;;;4994236;28;20426;-22
2022/01/04 06:20:16;;;;;;;0.08;0.08;;;17.60;69.20;;;;;;4992064;28;20491;-22
2022/01/04 06:22:42;;;;;;;0.10;0.10;;;17.60;69.20;;;;;;4993979;28;20038;-22
2022/01/04 06:25:10;;;;;;;0.10;0.10;;;17.60;69.20;;;;;;4993652;28;20101;-22
2022/01/04 06:27:36;;;;;;;0.10;0.10;;;17.60;69.20;;;;;;4991716;28;20465;-22
2022/01/04 06:30:02;;;;;;;0.00;0.00;;;17.60;69.20;;;;;;4993289;28;20031;-21
2022/01/04 06:32:28;;;;;;;0.10;0.10;;;17.60;69.10;;;;;;4993596;28;20732;-22
2022/01/04 06:34:53;;;;;;;0.20;0.10;;;17.60;69.20;;;;;;4993462;28;20143;-22
2022/01/04 06:37:19;;;;;;;0.10;0.10;;;17.60;69.20;;;;;;4994492;28;20038;-21
2022/01/04 06:39:45;;;;;;;0.38;0.22;;;17.60;69.20;;;;;;4997050;28;20038;-22
2022/01/04 06:42:11;;;;;;;0.22;0.22;;;17.60;69.20;;;;;;4995587;28;20502;-21
2022/01/04 06:44:37;;;;;;;0.10;0.10;;;17.60;69.20;;;;;;4996870;28;20094;-20
2022/01/04 06:47:03;;;;;;;0.10;0.10;;;17.50;69.30;;;;;;4996743;28;20525;-22
2022/01/04 06:49:28;;;;;;;0.05;0.05;;;17.60;69.20;;;;;;4997326;28;20133;-22
2022/01/04 06:51:54;;;;;;;0.17;0.10;;;17.50;69.10;;;;;;4996394;28;20105;-22
2022/01/04 06:54:21;;;;;;;0.10;0.10;;;17.60;69.20;;;;;;4995632;28;20046;-22
2022/01/04 06:56:48;;;;;;;0.10;0.10;;;17.50;69.20;;;;;;4997009;28;20458;-22
2022/01/04 06:59:13;;;;;;;0.00;0.00;;;17.50;69.20;;;;;;4996165;28;20517;-21
2022/01/04 07:01:39;;;;;;;0.00;0.00;;;17.50;69.10;;;;;;4996821;28;20137;-21
2022/01/04 07:04:05;;;;;;;0.03;0.03;;;17.50;69.20;;;;;;4993513;28;20490;-21
2022/01/04 07:06:31;;;;;;;0.10;0.10;;;17.50;69.10;;;;;;4997157;28;20057;-22
2022/01/04 07:08:57;;;;;;;0.10;0.10;;;17.50;69.10;;;;;;4996295;28;20073;-22
2022/01/04 07:11:22;;;;;;;0.10;0.10;;;17.50;69.10;;;;;;4996472;28;20411;-21
2022/01/04 07:13:48;;;;;;;0.17;0.17;;;17.50;69.10;;;;;;4996883;28;20503;-20
2022/01/04 07:16:14;;;;;;;0.15;0.15;;;17.50;69.20;;;;;;4995584;28;20124;-22
2022/01/04 07:18:39;;;;;;;0.00;0.00;;;17.50;69.20;;;;;;4996770;28;20125;-22
2022/01/04 07:21:06;;;;;;;0.05;0.05;;;17.50;69.20;;;;;;4995607;28;20045;-21
2022/01/04 07:23:32;;;;;;;0.00;0.00;;;17.50;69.00;;;;;;4994730;28;20038;-22
2022/01/04 07:25:57;;;;;;;0.10;0.10;;;17.50;69.10;;;;;;4996035;28;20093;-22
2022/01/04 07:28:23;;;;;;;0.10;0.10;;;17.50;69.10;;;;;;4996254;28;20042;-22
2022/01/04 07:30:49;;;;;;;0.10;0.10;;;17.50;69.00;;;;;;4995999;28;20070;-21
2022/01/04 07:33:16;;;;;;;0.10;0.10;;;17.50;69.10;;;;;;4995715;28;20034;-23
2022/01/04 07:35:45;;;;;;;0.10;0.10;;;17.50;69.20;;;;;;4996937;28;20050;-22
2022/01/04 07:38:11;;;;;;;0.00;0.00;;;17.50;69.00;;;;;;4995980;28;20038;-21
2022/01/04 07:40:37;;;;;;;0.10;0.10;;;17.50;69.10;;;;;;4996241;28;20062;-20
2022/01/04 07:43:02;;;;;;;0.10;0.10;;;17.50;69.20;;;;;;4980360;28;20134;-22
2022/01/04 07:45:32;;;;;;;0.20;0.20;;;17.50;69.20;;;;;;4976523;28;20077;-21
2022/01/04 07:47:58;;;;;;;0.10;0.10;;;17.50;69.00;;;;;;4987886;28;20164;-21
2022/01/04 07:50:24;;;;;;;0.00;0.00;;;17.50;69.10;;;;;;4995566;28;20120;-22
2022/01/04 07:52:49;;;;;;;0.10;0.10;;;17.50;69.10;;;;;;4998397;28;20415;-22
2022/01/04 07:55:15;;;;;;;0.00;0.00;;;17.50;69.10;;;;;;5015231;28;20138;-22
2022/01/04 07:57:42;;;;;;;0.10;0.10;;;17.50;69.20;;;;;;5016685;28;20073;-22
2022/01/04 08:00:08;;;;;;;0.08;0.08;;;17.50;69.00;;;;;;5015324;28;20450;-21
2022/01/04 08:02:34;;;;;;;0.10;0.10;;;17.50;69.10;;;;;;5016315;28;20047;-21
2022/01/04 08:04:59;;;;;;;0.10;0.10;;;17.50;69.10;;;;;;5008645;28;20113;-21
2022/01/04 08:07:25;;;;;;;0.10;0.10;;;17.50;69.10;;;;;;5016469;28;20049;-22
2022/01/04 08:09:52;;;;;;;0.10;0.10;;;17.40;69.10;;;;;;5016157;28;20144;-22
2022/01/04 08:12:18;;;;;;;0.20;0.00;;;17.40;69.20;;;;;;5026970;28;20528;-21
2022/01/04 08:14:44;;;;;;;0.00;0.00;;;17.50;69.00;;;;;;5035513;28;20041;-22
2022/01/04 08:17:11;;;;;;;0.10;0.10;;;17.40;69.10;;;;;;5035032;28;20429;-22
2022/01/04 08:19:36;;;;;;;0.10;0.10;;;17.40;69.10;;;;;;5036058;28;20067;-22
2022/01/04 08:22:02;;;;;;;0.10;0.10;;;17.40;69.10;;;;;;5035232;28;20048;-22
2022/01/04 08:24:28;;;;;;;0.10;0.10;;;17.40;69.10;;;;;;5035793;28;20484;-23
2022/01/04 08:26:53;;;;;;;0.10;0.10;;;17.40;69.00;;;;;;5035560;28;20049;-22
2022/01/04 08:29:19;;;;;;;0.10;0.10;;;17.40;68.90;;;;;;5034989;28;20401;-22
2022/01/04 08:31:45;;;;;;;0.10;0.10;;;17.40;69.00;;;;;;5035538;28;20096;-21
2022/01/04 08:34:10;;;;;;;0.00;0.00;;;17.40;69.10;;;;;;5034775;28;20048;-21
2022/01/04 08:36:38;;;;;;;0.10;0.00;;;17.40;69.00;;;;;;5035409;28;20064;-22
2022/01/04 08:39:03;;;;;;;0.13;0.13;;;17.40;69.10;;;;;;5034901;28;20132;-20
2022/01/04 08:41:29;;;;;;;0.10;0.10;;;17.40;69.10;;;;;;5015872;28;20084;-22
2022/01/04 08:43:55;;;;;;;0.10;0.10;;;17.40;69.00;;;;;;5015649;28;20124;-21
2022/01/04 08:46:22;;;;;;;0.00;0.00;;;17.40;69.10;;;;;;5013805;28;20614;-23
2022/01/04 08:48:48;;;;;;;0.10;0.10;;;17.40;69.10;;;;;;5015760;28;20100;-22
2022/01/04 08:51:14;;;;;;;0.00;0.00;;;17.40;69.10;;;;;;5014317;28;20070;-22
2022/01/04 08:53:39;;;;;;;0.25;0.10;;;17.40;69.20;;;;;;5023544;28;20049;-22
2022/01/04 08:56:05;;;;;;;0.52;0.10;;;17.40;69.20;;;;;;5034594;28;20038;-22
2022/01/04 08:58:30;;;;;;;0.45;0.20;;;17.40;69.20;;;;;;5035575;28;20456;-22
2022/01/04 09:00:56;;;;;;;0.10;0.10;;;17.40;69.10;;;;;;5034772;28;20049;-22
2022/01/04 09:03:24;;;;;;;0.10;0.10;;;17.40;69.10;;;;;;5032655;28;20053;-22
2022/01/04 09:05:49;;;;;;;0.10;0.10;;;17.40;69.10;;;;;;5015503;28;20053;-20
2022/01/04 09:08:15;;;;;;;0.22;0.10;;;17.40;69.10;;;;;;5014664;28;20046;-21
2022/01/04 09:10:41;;;;;;;0.15;0.15;;;17.40;69.10;;;;;;5015266;28;20056;-21
2022/01/04 09:13:13;;;;;;;0.03;0.03;;;17.40;69.10;;;;;;5014466;28;20052;-22
2022/01/04 09:20:50;;;;;;;0.10;0.10;;;17.40;69.10;;;;;;5014406;28;21061;-20
2022/01/04 09:23:18;;;;;;;0.13;0.13;;;17.40;69.10;;;;;;5013600;28;20212;-22
2022/01/04 09:25:47;;;;;;;0.15;0.10;;;17.40;69.10;;;;;;5014939;28;20053;-22
2022/01/04 09:28:13;;;;;;;0.38;0.38;;;17.40;69.10;;;;;;5013046;28;20132;-22
2022/01/04 09:30:40;;;;;;;0.20;0.20;;;17.40;69.00;;;;;;5014642;28;20140;-23
2022/01/04 09:33:05;;;;;;;0.10;0.10;;;17.40;69.00;;;;;;5011197;28;20050;-22
2022/01/04 09:35:36;;;;;;;0.10;0.10;;;17.40;69.00;;;;;;5014945;28;20048;-22
2022/01/04 09:38:02;;;;;;;0.22;0.20;;;17.40;69.10;;;;;;5014930;28;20050;-22
2022/01/04 09:40:27;;;;;;;0.10;0.10;;;17.40;69.90;;;;;;5012260;28;20050;-20
2022/01/04 09:42:53;;;;;;;0.10;0.10;;;17.40;69.10;;;;;;5013473;28;20048;-22
2022/01/04 09:45:18;;;;;;;0.10;0.10;;;17.40;69.10;;;;;;5013835;28;20042;-21
2022/01/04 09:47:44;;;;;;;0.10;0.10;;;17.40;69.90;;;;;;5015226;28;20046;-20
2022/01/04 09:50:10;;;;;;;0.10;0.00;;;17.40;69.10;;;;;;4996836;28;20621;-21
2022/01/04 09:52:42;;;;;;;0.10;0.10;;;17.40;69.10;;;;;;4999003;28;20046;-21
2022/01/04 09:55:08;;;;;;;0.10;0.10;;;17.40;69.10;;;;;;5009801;28;20506;-22
2022/01/04 09:57:34;;;;;;;0.30;0.20;;;17.40;69.00;;;;;;5014485;28;20041;-22
2022/01/04 09:59:59;;;;;;;0.20;0.20;;;17.40;69.10;;;;;;5014505;28;20495;-22
2022/01/04 10:02:26;;;;;;;0.10;0.10;;;17.40;69.00;;;;;;5014053;28;20050;-22
2022/01/04 10:04:52;;;;;;;0.10;0.10;;;17.40;69.10;;;;;;5007031;28;20053;-22
2022/01/04 10:07:20;;;;;;;0.10;0.10;;;17.40;69.00;;;;;;4992883;28;20046;-23
2022/01/04 10:09:48;;;;;;;0.10;0.10;;;17.40;69.00;;;;;;4994602;28;20344;-23
2022/01/04 10:12:18;;;;;;;0.15;0.10;;;17.30;69.00;;;;;;4975075;28;20043;-22
2022/01/04 10:14:46;;;;;;;0.38;0.10;;;17.40;69.10;;;;;;4979165;28;20058;-22
2022/01/04 10:17:21;;;;;;;0.10;0.10;;;17.40;69.10;;;;;;4978678;28;20046;-22
2022/01/04 10:19:48;;;;;;;0.20;0.10;;;17.40;69.00;;;;;;4979794;28;20046;-23
2022/01/04 10:22:31;;;;;;;0.10;0.10;;;17.40;69.10;;;;;;4978591;28;20035;-22
2022/01/04 10:25:02;;;;;;;0.10;0.00;;;17.30;69.00;;;;;;5008931;28;20042;-22
2022/01/04 10:27:38;;;;;;;0.10;0.10;;;17.40;69.00;;;;;;5017418;28;20069;-22
2022/01/04 10:30:13;;;;;;;0.65;0.10;;;17.40;68.90;;;;;;5018453;28;20046;-21
2022/01/04 10:33:14;;;;;;;0.10;0.10;;;17.40;68.90;;;;;;5017568;28;20041;-22
2022/01/04 10:35:49;;;;;;;0.20;0.20;;;17.40;69.00;;;;;;5017221;28;20042;-21
2022/01/04 10:38:15;;;;;;;0.40;0.20;;;17.30;69.00;;;;;;5011604;28;20053;-23
2022/01/04 10:40:49;;;;;;;0.10;0.10;;;17.30;69.00;;;;;;4998312;28;20486;-22
2022/01/04 10:43:27;;;;;;;0.20;0.20;;;17.30;69.00;;;;;;4997575;28;20042;-21
2022/01/04 10:45:53;;;;;;;0.30;0.20;;;17.30;69.00;;;;;;4983989;28;20047;-22
2022/01/04 10:48:21;;;;;;;0.30;0.30;;;17.30;68.90;;;;;;4991025;28;20057;-22
2022/01/04 10:50:57;;;;;;;0.10;0.00;;;17.40;69.00;;;;;;4998220;28;20056;-23
2022/01/04 10:53:27;;;;;;;0.52;0.30;;;17.30;69.80;;;;;;4996158;28;20054;-21
2022/01/04 10:56:01;;;;;;;0.13;0.13;;;17.30;68.90;;;;;;4995830;28;20042;-21
2022/01/04 10:58:34;;;;;;;0.10;0.10;;;17.40;69.00;;;;;;4997193;28;20092;-23
2022/01/04 11:01:05;;;;;;;0.20;0.10;;;17.40;69.30;;;;;;4997879;28;20042;-21
2022/01/04 11:03:32;;;;;;;0.10;0.10;;;17.40;68.90;;;;;;4995930;28;20454;-22
2022/01/04 11:06:19;;;;;;;0.20;0.20;;;17.30;69.00;;;;;;4997506;28;20046;-21
2022/01/04 11:08:45;;;;;;;0.40;0.22;;;17.30;69.00;;;;;;4997300;28;20646;-23
2022/01/04 11:11:10;;;;;;;0.22;0.22;;;17.30;69.00;;;;;;4995323;28;20093;-22
2022/01/04 11:13:36;;;;;;;0.10;0.10;;;17.40;69.10;;;;;;4997959;28;20035;-22
2022/01/04 11:16:02;;;;;;;0.40;0.30;;;17.30;68.90;;;;;;4997601;28;20057;-22
2022/01/04 11:18:28;;;;;;;0.10;0.10;;;17.30;68.90;;;;;;4996964;28;20591;-22
2022/01/04 11:20:54;;;;;;;0.20;0.20;;;17.30;69.00;;;;;;4996626;28;20466;-22
2022/01/04 11:23:28;;;;;;;0.20;0.20;;;17.30;69.00;;;;;;4996233;28;20058;-22
2022/01/04 11:25:54;;;;;;;0.20;0.20;;;17.30;69.00;;;;;;4996407;28;20046;-21
2022/01/04 11:28:20;;;;;;;0.40;0.40;;;17.30;69.00;;;;;;4996450;28;20041;-21
2022/01/04 11:30:45;;;;;;;1.00;0.28;;;17.30;69.00;;;;;;4985920;28;20057;-21
2022/01/04 11:33:19;;;;;;;0.13;0.13;;;17.30;68.90;;;;;;4977440;28;20092;-21
2022/01/04 11:35:46;;;;;;;0.20;0.20;;;17.30;68.80;;;;;;4986795;28;20065;-21
2022/01/04 11:38:12;;;;;;;0.40;0.20;;;17.30;68.90;;;;;;4996371;28;20086;-22
2022/01/04 11:40:41;;;;;;;0.22;0.15;;;17.30;69.00;;;;;;4991839;28;20081;-21
2022/01/04 11:43:36;;;;;;;0.50;0.20;;;17.30;68.90;;;;;;4989622;28;20042;-22
2022/01/04 11:46:02;;;;;;;0.20;0.20;;;17.30;68.90;;;;;;5011619;28;20049;-20
2022/01/04 11:48:41;;;;;;;0.30;0.30;;;17.30;69.00;;;;;;5000358;28;20077;-21
2022/01/04 11:51:34;;;;;;;0.30;0.30;;;17.30;69.00;;;;;;4999083;28;20050;-22
2022/01/04 11:54:17;;;;;;;0.30;0.30;;;17.30;68.90;;;;;;4984223;28;20051;-22
2022/01/04 11:56:57;;;;;;;0.20;0.20;;;17.30;69.00;;;;;;5014949;28;20070;-22
2022/01/04 11:59:34;;;;;;;0.25;0.15;;;17.30;68.90;;;;;;5015660;28;20434;-22
2022/01/04 12:02:30;;;;;;;0.20;0.10;;;17.30;68.90;;;;;;5016260;28;20073;-21
2022/01/04 12:04:57;;;;;;;0.60;0.57;;;17.30;68.90;;;;;;5011925;28;20480;-21
2022/01/04 12:07:48;;;;;;;0.30;0.30;;;17.30;68.80;;;;;;4999597;28;20046;-22
2022/01/04 12:10:19;;;;;;;0.30;0.25;;;17.30;68.80;;;;;;5014715;28;20054;-21
2022/01/04 12:12:57;;;;;;;0.20;0.20;;;17.30;68.90;;;;;;5015651;28;20045;-22
2022/01/04 12:15:36;;;;;;;0.20;0.10;;;17.30;68.90;;;;;;5015423;28;20068;-22
2022/01/04 12:18:23;;;;;;;0.20;0.20;;;17.30;68.90;;;;;;5016032;28;20495;-21
2022/01/04 12:20:50;;;;;;;0.20;0.20;;;17.40;68.90;;;;;;5015471;28;20076;-22
2022/01/04 12:23:35;;;;;;;0.20;0.20;;;17.30;69.00;;;;;;5006307;28;20049;-22
2022/01/04 12:26:11;;;;;;;0.20;0.20;;;17.30;69.00;;;;;;4996541;28;20130;-21
2022/01/04 12:28:40;;;;;;;0.10;0.10;;;17.30;69.10;;;;;;4995746;28;20057;-22
2022/01/04 12:33:45;;;;;;;0.10;0.10;;;17.50;68.60;;;;;;5014744;28;20046;-21
2022/01/04 12:36:22;;;;;;;0.10;0.10;;;17.40;69.00;;;;;;5011096;28;20477;-22
2022/01/04 12:38:48;;;;;;;0.20;0.13;;;17.50;68.40;;;;;;4994809;28;20483;-20
2022/01/04 12:41:17;;;;;;;0.10;0.10;;;17.60;68.30;;;;;;4993232;28;20453;-19
2022/01/04 12:43:46;;;;;;;0.20;0.20;;;17.50;68.20;;;;;;4994787;28;20050;-22
2022/01/04 12:46:12;;;;;;;0.10;0.10;;;17.60;68.30;;;;;;4996146;28;20042;-22
2022/01/04 12:48:50;;;;;;;0.13;0.13;;;17.50;68.20;;;;;;4994419;28;20492;-22
2022/01/04 12:51:36;;;;;;;0.30;0.20;;;17.60;68.10;;;;;;4993779;28;20049;-22
2022/01/04 12:54:05;;;;;;;0.15;0.10;;;17.50;68.20;;;;;;4995526;28;20073;-22
2022/01/04 12:56:31;;;;;;;0.00;0.00;;;17.50;68.20;;;;;;5009224;28;20034;-22
2022/01/04 12:58:57;;;;;;;0.13;0.10;;;17.50;68.30;;;;;;4988861;28;20047;-21
2022/01/04 13:01:27;;;;;;;0.30;0.30;;;17.50;68.30;;;;;;4994625;28;20046;-21